Terminal Aerodrome Forecast
Issued by NWS Blacksburg, VA

Current Version | Previous Version | Text Only | Print | Product List | Glossary Off
Versions: 1 2 3 4 5 6 7 8 9 10 11 12 13 14 15 16 17 18 19 20 21 22

000
FTUS41 KRNK 221132 AAB
TAFBLF
TAF AMD
KBLF 221132Z 2212/2312 00000KT 4SM BR SCT040
      TEMPO 2212/2213 1 1/2SM BR
     FM221300 VRB03KT P6SM FEW080=

USA.gov is the U.S. government's official web portal to all federal, state and local government web resources and services.